Time;durP1;ratioP1;P1;durP2;ratioP2;P2;SDS_P1;SDS_P2;PMS_P1;PMS_P2;Temp;Humidity;BMP_temperature;BMP_pressure;BME280_temperature;BME280_humidity;BME280_pressure;Samples;Min_cycle;Max_cycle;Signal;HPM_P1;HPM_P2
2022/11/27 00:02:18;;;;;;;11.20;9.67;;;;;;;4.05;100.00;97810.03;5057530;28;20219;-61
2022/11/27 00:04:44;;;;;;;14.93;11.37;;;;;;;4.03;100.00;97801.44;5057107;28;20278;-60
2022/11/27 00:07:12;;;;;;;18.77;11.53;;;;;;;4.10;100.00;97802.81;5057745;28;20219;-60
2022/11/27 00:09:42;;;;;;;11.93;10.13;;;;;;;4.13;100.00;97808.75;5057544;28;20199;-60
2022/11/27 00:12:09;;;;;;;12.20;9.50;;;;;;;4.24;100.00;97800.38;5057555;28;20199;-61
2022/11/27 00:14:35;;;;;;;15.87;11.10;;;;;;;4.32;100.00;97803.47;5057340;28;20203;-61
2022/11/27 00:17:01;;;;;;;18.43;12.07;;;;;;;4.43;100.00;97812.47;5057325;28;20206;-61
2022/11/27 00:19:28;;;;;;;14.77;12.00;;;;;;;4.49;100.00;97808.69;5057224;28;20231;-61
2022/11/27 00:21:55;;;;;;;21.63;13.43;;;;;;;4.46;100.00;97801.81;5058467;28;20218;-61
2022/11/27 00:24:23;;;;;;;18.50;13.10;;;;;;;4.44;100.00;97808.06;5058263;28;20214;-61
2022/11/27 00:26:51;;;;;;;18.80;13.63;;;;;;;4.44;100.00;97797.59;5058440;28;20524;-61
2022/11/27 00:29:17;;;;;;;20.83;14.47;;;;;;;4.47;100.00;97794.81;5060037;28;20203;-62
2022/11/27 00:31:44;;;;;;;20.60;15.43;;;;;;;4.51;100.00;97778.03;5056712;28;20543;-61
2022/11/27 00:34:13;;;;;;;25.77;16.97;;;;;;;4.52;100.00;97784.97;5062024;28;20286;-61
2022/11/27 00:36:40;;;;;;;26.53;17.63;;;;;;;4.46;100.00;97780.03;5056316;28;20239;-61
2022/11/27 00:39:08;;;;;;;23.33;16.43;;;;;;;4.45;100.00;97778.34;5056990;28;20235;-61
2022/11/27 00:41:35;;;;;;;24.03;17.13;;;;;;;4.43;100.00;97775.78;5065068;28;20555;-61
2022/11/27 00:44:03;;;;;;;21.80;16.60;;;;;;;4.46;100.00;97780.03;5064478;28;20218;-61
2022/11/27 00:46:30;;;;;;;20.20;15.50;;;;;;;4.45;100.00;97780.97;5056927;28;20223;-61
2022/11/27 00:48:57;;;;;;;20.60;15.47;;;;;;;4.47;100.00;97782.56;5056509;28;20203;-61
2022/11/27 00:51:24;;;;;;;21.43;15.90;;;;;;;4.47;100.00;97779.09;5056489;28;20222;-61
2022/11/27 00:53:51;;;;;;;18.97;15.37;;;;;;;4.49;100.00;97772.03;5056939;28;20206;-60
2022/11/27 00:56:20;;;;;;;20.87;16.20;;;;;;;4.46;100.00;97765.16;5056758;28;20210;-61
2022/11/27 00:58:47;;;;;;;20.47;15.73;;;;;;;4.57;100.00;97772.47;5063777;28;20551;-60
2022/11/27 01:01:17;;;;;;;21.73;15.90;;;;;;;4.51;100.00;97757.06;5056465;28;20218;-61
2022/11/27 01:03:43;;;;;;;21.67;16.27;;;;;;;4.50;100.00;97765.84;5056413;28;20625;-62
2022/11/27 01:06:10;;;;;;;19.67;14.90;;;;;;;4.56;100.00;97756.84;5055930;28;20217;-62
2022/11/27 01:08:37;;;;;;;19.40;14.77;;;;;;;4.47;100.00;97760.75;5056427;28;20538;-61
2022/11/27 01:11:03;;;;;;;20.97;15.20;;;;;;;4.51;100.00;97754.44;5056444;28;20309;-61
2022/11/27 01:13:34;;;;;;;19.67;14.33;;;;;;;4.54;100.00;97751.66;5056481;28;20214;-60
2022/11/27 01:16:03;;;;;;;21.17;15.50;;;;;;;4.53;100.00;97738.66;5056198;28;20532;-61
2022/11/27 01:18:31;;;;;;;20.90;16.07;;;;;;;4.45;100.00;97745.16;5064873;28;20245;-60
2022/11/27 01:20:58;;;;;;;17.63;14.27;;;;;;;4.49;100.00;97743.22;5061367;28;20214;-61
2022/11/27 01:23:24;;;;;;;20.80;15.07;;;;;;;4.46;100.00;97746.81;5069779;28;20199;-60
2022/11/27 01:25:52;;;;;;;19.83;15.03;;;;;;;4.51;100.00;97741.34;5073081;28;20206;-60
2022/11/27 01:28:19;;;;;;;20.53;14.87;;;;;;;4.51;100.00;97736.97;5064939;28;20260;-61
2022/11/27 01:30:47;;;;;;;19.87;15.33;;;;;;;4.44;100.00;97732.13;5061572;28;20211;-61
2022/11/27 01:33:14;;;;;;;20.80;15.50;;;;;;;4.50;100.00;97729.16;5071470;28;20202;-61
2022/11/27 01:35:42;;;;;;;18.10;14.40;;;;;;;4.48;100.00;97731.03;5061402;28;20239;-62
2022/11/27 01:38:09;;;;;;;21.50;14.70;;;;;;;4.47;100.00;97729.34;5068200;28;20199;-61
2022/11/27 01:40:35;;;;;;;21.37;15.43;;;;;;;4.44;100.00;97726.88;5076946;28;20222;-61
2022/11/27 01:43:02;;;;;;;19.20;15.07;;;;;;;4.44;100.00;97719.03;5066866;28;20238;-61
2022/11/27 01:45:29;;;;;;;18.63;14.63;;;;;;;4.49;100.00;97706.53;5070937;28;20193;-62
2022/11/27 01:47:57;;;;;;;18.57;14.40;;;;;;;4.45;100.00;97694.53;5087591;28;20250;-62
2022/11/27 01:50:29;;;;;;;22.70;16.03;;;;;;;4.45;100.00;97697.16;5077672;28;20203;-61
2022/11/27 01:53:01;;;;;;;18.57;15.10;;;;;;;4.48;100.00;97694.38;5077882;28;20198;-62
2022/11/27 01:55:30;;;;;;;20.40;16.23;;;;;;;4.46;100.00;97693.63;5070858;28;20210;-61
2022/11/27 01:57:59;;;;;;;20.60;16.03;;;;;;;4.43;100.00;97686.75;5063279;28;20211;-61
2022/11/27 02:00:26;;;;;;;20.50;15.87;;;;;;;4.45;100.00;97682.28;5066364;28;20227;-60
2022/11/27 02:02:52;;;;;;;19.17;14.67;;;;;;;4.47;100.00;97682.19;5055195;28;20206;-60
2022/11/27 02:05:21;;;;;;;20.87;16.27;;;;;;;4.40;100.00;97680.81;5054829;28;20214;-61
2022/11/27 02:07:49;;;;;;;18.70;15.50;;;;;;;4.48;100.00;97683.91;5055508;28;20214;-61
2022/11/27 02:10:19;;;;;;;19.17;15.50;;;;;;;4.52;100.00;97682.81;5055108;28;20203;-60
2022/11/27 02:12:55;;;;;;;21.77;15.63;;;;;;;4.53;100.00;97677.47;5054206;28;20203;-62
2022/11/27 02:15:31;;;;;;;19.27;15.00;;;;;;;4.59;100.00;97672.84;5064433;28;20208;-61
2022/11/27 02:18:03;;;;;;;19.27;14.60;;;;;;;4.53;100.00;97670.56;5056741;28;20199;-61
2022/11/27 02:20:40;;;;;;;18.20;13.93;;;;;;;4.54;100.00;97667.84;5054746;28;20215;-60
2022/11/27 02:23:45;;;;;;;15.57;13.53;;;;;;;4.50;100.00;97664.53;5058278;28;20229;-61
2022/11/27 02:26:26;;;;;;;17.47;14.40;;;;;;;4.50;100.00;97667.16;5054638;28;20202;-61
2022/11/27 02:29:00;;;;;;;18.20;13.97;;;;;;;4.48;100.00;97670.78;5060688;28;20639;-60
2022/11/27 02:31:34;;;;;;;20.33;14.53;;;;;;;4.51;100.00;97663.63;5054735;28;20203;-61
2022/11/27 02:34:06;;;;;;;21.53;15.13;;;;;;;4.58;100.00;97663.28;5054904;28;20203;-60
2022/11/27 02:36:33;;;;;;;22.10;16.27;;;;;;;4.48;100.00;97658.56;5054132;28;20252;-61
2022/11/27 02:39:05;;;;;;;21.00;15.77;;;;;;;4.42;100.00;97663.28;5057147;28;20223;-61
2022/11/27 02:41:38;;;;;;;21.10;16.43;;;;;;;4.46;100.00;97672.66;5068070;28;20293;-60
2022/11/27 02:44:08;;;;;;;22.90;16.43;;;;;;;4.39;100.00;97673.91;5065657;28;20204;-61
2022/11/27 02:46:37;;;;;;;20.53;15.93;;;;;;;4.33;100.00;97675.06;5054692;28;20670;-62
2022/11/27 02:49:06;;;;;;;20.47;15.83;;;;;;;4.26;100.00;97672.84;5055676;28;20217;-60
2022/11/27 02:51:37;;;;;;;19.33;15.93;;;;;;;4.27;100.00;97669.31;5054083;28;20199;-61
2022/11/27 02:54:06;;;;;;;18.83;15.00;;;;;;;4.27;100.00;97664.91;5055920;28;20203;-62
2022/11/27 02:56:33;;;;;;;18.40;15.63;;;;;;;4.26;100.00;97667.59;5062281;28;20249;-62
2022/11/27 02:59:02;;;;;;;19.70;15.40;;;;;;;4.36;100.00;97658.34;5062031;28;20230;-61
2022/11/27 03:01:34;;;;;;;19.00;15.43;;;;;;;4.23;100.00;97654.66;5064173;28;20207;-61
2022/11/27 03:04:02;;;;;;;18.73;14.20;;;;;;;4.21;100.00;97659.16;5082502;28;20267;-60
2022/11/27 03:06:33;;;;;;;20.03;14.77;;;;;;;4.23;100.00;97646.81;5064324;28;20206;-61
2022/11/27 03:09:03;;;;;;;20.47;15.73;;;;;;;4.21;100.00;97644.28;5061247;28;20202;-60
2022/11/27 03:11:30;;;;;;;16.10;13.83;;;;;;;4.29;100.00;97646.50;5061145;28;20233;-61
2022/11/27 03:14:00;;;;;;;18.40;15.10;;;;;;;4.25;100.00;97651.03;5060803;28;20203;-61
2022/11/27 03:16:34;;;;;;;19.37;14.40;;;;;;;4.29;100.00;97647.34;5061166;28;20213;-61
2022/11/27 03:19:09;;;;;;;17.23;14.63;;;;;;;4.40;100.00;97644.16;5061037;28;20238;-62
2022/11/27 03:21:38;;;;;;;18.97;14.77;;;;;;;4.31;100.00;97637.66;5060007;28;20202;-61
2022/11/27 03:24:05;;;;;;;19.07;15.70;;;;;;;4.31;100.00;97635.03;5059976;28;20217;-61
2022/11/27 03:26:33;;;;;;;19.33;14.93;;;;;;;4.32;100.00;97630.66;5061016;28;20218;-61
2022/11/27 03:29:04;;;;;;;21.13;15.60;;;;;;;4.34;100.00;97640.09;5060938;28;20215;-60
2022/11/27 03:31:33;;;;;;;20.03;15.60;;;;;;;4.30;100.00;97642.94;5060945;28;20285;-60
2022/11/27 03:33:59;;;;;;;19.07;16.07;;;;;;;4.27;100.00;97643.13;5060658;28;20206;-61
2022/11/27 03:36:26;;;;;;;19.07;14.70;;;;;;;4.30;100.00;97642.94;5060215;28;20238;-61
2022/11/27 03:38:54;;;;;;;20.63;16.03;;;;;;;4.33;100.00;97645.41;5060923;28;20206;-60
2022/11/27 03:41:25;;;;;;;20.53;16.33;;;;;;;4.30;100.00;97643.81;5063003;28;20293;-60
2022/11/27 03:43:56;;;;;;;20.30;16.27;;;;;;;4.33;100.00;97642.78;5062530;28;20209;-61
2022/11/27 03:46:29;;;;;;;18.67;15.73;;;;;;;4.42;100.00;97637.09;5061096;28;20206;-61
2022/11/27 03:49:01;;;;;;;22.07;16.03;;;;;;;4.43;100.00;97638.75;5063227;28;20199;-60
2022/11/27 03:51:34;;;;;;;20.73;15.67;;;;;;;4.32;100.00;97641.94;5061716;28;20195;-60
2022/11/27 03:54:09;;;;;;;19.53;15.60;;;;;;;4.36;100.00;97640.00;5066423;28;20663;-61
2022/11/27 03:56:38;;;;;;;17.40;15.57;;;;;;;4.33;100.00;97643.63;5062516;28;20210;-61
2022/11/27 03:59:08;;;;;;;19.20;15.13;;;;;;;4.27;100.00;97643.13;5063858;28;20218;-60
2022/11/27 04:01:35;;;;;;;19.27;15.40;;;;;;;4.30;100.00;97640.34;5062127;28;20203;-61
2022/11/27 04:04:05;;;;;;;18.33;15.67;;;;;;;4.36;100.00;97640.00;5062182;28;20602;-61
2022/11/27 04:06:32;;;;;;;18.07;15.03;;;;;;;4.31;100.00;97639.41;5057615;28;20636;-60
2022/11/27 04:08:58;;;;;;;17.10;14.80;;;;;;;4.37;100.00;97634.69;5070995;28;20214;-61
2022/11/27 04:11:26;;;;;;;18.53;15.70;;;;;;;4.36;100.00;97630.38;5061340;28;20218;-61
2022/11/27 04:13:52;;;;;;;18.37;15.63;;;;;;;4.36;100.00;97633.00;5072389;28;20195;-62
2022/11/27 04:16:19;;;;;;;20.73;16.40;;;;;;;4.26;100.00;97633.56;5063345;28;20203;-61
2022/11/27 04:18:45;;;;;;;18.87;15.63;;;;;;;4.24;100.00;97633.66;5065325;28;20199;-60
2022/11/27 04:21:13;;;;;;;21.17;15.90;;;;;;;4.18;100.00;97625.28;5056365;28;20223;-61
2022/11/27 04:23:40;;;;;;;19.87;14.73;;;;;;;4.21;100.00;97623.34;5057505;28;20203;-61
2022/11/27 04:26:07;;;;;;;19.23;15.63;;;;;;;4.19;100.00;97622.56;5057378;28;20218;-60
2022/11/27 04:28:34;;;;;;;16.10;14.40;;;;;;;4.15;100.00;97618.41;5066043;28;20203;-61
2022/11/27 04:31:01;;;;;;;16.73;13.20;;;;;;;4.13;100.00;97628.13;5079859;28;20194;-61
2022/11/27 04:33:27;;;;;;;16.00;13.07;;;;;;;4.07;100.00;97625.00;5080593;28;20190;-61
2022/11/27 04:35:54;;;;;;;14.00;12.47;;;;;;;4.04;100.00;97617.31;5068247;28;20235;-60
2022/11/27 04:38:22;;;;;;;14.87;12.30;;;;;;;4.08;100.00;97626.66;5057276;28;20207;-61
2022/11/27 04:40:48;;;;;;;15.97;12.70;;;;;;;4.15;100.00;97626.28;5058947;28;20223;-61
2022/11/27 04:43:15;;;;;;;16.00;12.70;;;;;;;4.13;100.00;97629.91;5074112;28;20213;-61
2022/11/27 04:45:43;;;;;;;16.77;13.00;;;;;;;4.15;100.00;97628.88;5057697;28;20797;-61
2022/11/27 04:48:09;;;;;;;13.03;11.47;;;;;;;4.15;100.00;97630.66;5056610;28;20540;-60
2022/11/27 04:50:36;;;;;;;16.70;12.67;;;;;;;4.12;100.00;97633.44;5056397;28;20199;-60
2022/11/27 04:53:02;;;;;;;13.63;11.43;;;;;;;4.09;100.00;97633.59;5057955;28;20203;-61
2022/11/27 04:55:33;;;;;;;15.80;12.97;;;;;;;4.08;100.00;97634.50;5079452;28;20199;-62
2022/11/27 04:58:00;;;;;;;13.10;11.43;;;;;;;4.08;100.00;97637.97;5079974;28;20172;-61
2022/11/27 05:00:27;;;;;;;12.83;11.40;;;;;;;4.04;100.00;97646.09;5087250;28;20272;-61
2022/11/27 05:02:54;;;;;;;12.87;11.07;;;;;;;4.05;100.00;97643.38;5090757;28;20615;-61
2022/11/27 05:05:20;;;;;;;12.60;11.03;;;;;;;4.01;100.00;97653.16;5056216;28;20210;-61
2022/11/27 05:07:49;;;;;;;11.77;10.10;;;;;;;4.04;100.00;97659.19;5056611;28;20211;-60
2022/11/27 05:10:15;;;;;;;13.30;10.50;;;;;;;3.98;100.00;97662.94;5056907;28;20206;-61
2022/11/27 05:12:43;;;;;;;12.27;10.03;;;;;;;3.92;100.00;97653.63;5056372;28;20202;-61
2022/11/27 05:15:11;;;;;;;12.07;10.80;;;;;;;3.87;100.00;97650.41;5055876;28;20552;-62
2022/11/27 05:17:38;;;;;;;10.77;9.63;;;;;;;3.79;100.00;97646.50;5055716;28;20207;-60
2022/11/27 05:20:05;;;;;;;11.47;9.47;;;;;;;3.77;100.00;97654.41;5055169;28;20675;-61
2022/11/27 05:22:33;;;;;;;10.37;9.30;;;;;;;3.76;100.00;97647.47;5056034;28;20213;-60
2022/11/27 05:25:00;;;;;;;9.60;8.60;;;;;;;3.71;100.00;97649.50;5058193;28;20229;-61
2022/11/27 05:27:26;;;;;;;10.37;8.83;;;;;;;3.72;100.00;97645.09;5058192;28;20211;-61
2022/11/27 05:29:54;;;;;;;9.23;8.23;;;;;;;3.73;100.00;97634.56;5057656;28;20207;-61
2022/11/27 05:32:20;;;;;;;9.30;8.40;;;;;;;3.65;100.00;97631.47;5060292;28;20217;-61
2022/11/27 05:34:48;;;;;;;8.40;7.60;;;;;;;3.68;100.00;97628.72;5064566;28;20210;-62
2022/11/27 05:37:15;;;;;;;9.33;8.43;;;;;;;3.67;100.00;97624.41;5059913;28;20269;-62
2022/11/27 05:39:41;;;;;;;9.00;8.20;;;;;;;3.63;100.00;97620.25;5055942;28;20239;-62
2022/11/27 05:42:08;;;;;;;10.00;9.00;;;;;;;3.63;100.00;97619.38;5065865;28;20210;-61
2022/11/27 05:44:34;;;;;;;9.63;8.73;;;;;;;3.60;100.00;97619.53;5055883;28;20203;-60
2022/11/27 05:47:02;;;;;;;8.80;7.90;;;;;;;3.53;100.00;97619.00;5056000;28;20218;-60
2022/11/27 05:49:28;;;;;;;10.07;8.10;;;;;;;3.61;100.00;97611.63;5055250;28;20214;-61
2022/11/27 05:51:55;;;;;;;8.90;8.10;;;;;;;3.60;100.00;97615.16;5055582;28;20651;-60
2022/11/27 05:54:22;;;;;;;9.23;8.07;;;;;;;3.50;100.00;97613.94;5055926;28;20631;-60
2022/11/27 05:56:50;;;;;;;9.30;8.07;;;;;;;3.56;100.00;97607.53;5058115;28;20281;-61
2022/11/27 05:59:17;;;;;;;9.37;8.47;;;;;;;3.66;100.00;97604.38;5056485;28;20207;-61
2022/11/27 06:01:43;;;;;;;8.73;7.83;;;;;;;3.74;100.00;97612.72;5056197;28;20222;-60
2022/11/27 06:04:11;;;;;;;9.40;8.23;;;;;;;3.73;100.00;97615.38;5071043;28;20217;-60
2022/11/27 06:06:38;;;;;;;10.93;9.83;;;;;;;3.83;100.00;97622.69;5071363;28;20666;-61
2022/11/27 06:09:05;;;;;;;15.53;11.37;;;;;;;3.80;100.00;97624.63;5056878;28;20642;-61
2022/11/27 06:11:32;;;;;;;14.13;12.10;;;;;;;3.90;100.00;97629.31;5056109;28;20218;-61
2022/11/27 06:13:58;;;;;;;15.07;12.93;;;;;;;3.84;100.00;97629.63;5055898;28;20712;-61
2022/11/27 06:16:25;;;;;;;14.77;12.57;;;;;;;3.84;100.00;97621.78;5055577;28;20222;-62
2022/11/27 06:18:54;;;;;;;13.80;12.33;;;;;;;3.76;100.00;97621.31;5055487;28;20214;-60
2022/11/27 06:21:23;;;;;;;14.67;12.77;;;;;;;3.74;100.00;97624.94;5055054;28;20613;-61
2022/11/27 06:23:55;;;;;;;13.60;11.37;;;;;;;3.84;100.00;97632.25;5064782;28;20286;-61
2022/11/27 06:26:24;;;;;;;11.63;10.20;;;;;;;3.78;100.00;97635.19;5055841;28;20199;-61
2022/11/27 06:28:51;;;;;;;10.53;9.43;;;;;;;3.69;100.00;97633.00;5055479;28;20199;-61
2022/11/27 06:31:19;;;;;;;10.67;9.30;;;;;;;3.56;100.00;97637.16;5055999;28;20638;-62
2022/11/27 06:33:46;;;;;;;10.47;9.37;;;;;;;3.53;100.00;97629.47;5057899;28;20210;-61
2022/11/27 06:36:13;;;;;;;9.83;8.87;;;;;;;3.36;100.00;97626.84;5058951;28;20246;-61
2022/11/27 06:38:40;;;;;;;8.90;8.10;;;;;;;3.41;100.00;97630.06;5057739;28;20225;-61
2022/11/27 06:41:08;;;;;;;8.87;8.07;;;;;;;3.34;100.00;97628.66;5073969;28;20244;-61
2022/11/27 06:43:36;;;;;;;9.00;8.13;;;;;;;3.36;100.00;97629.47;5075736;28;20292;-62
2022/11/27 06:46:04;;;;;;;8.50;7.60;;;;;;;3.34;100.00;97628.66;5065853;28;20224;-61
2022/11/27 06:48:32;;;;;;;7.90;7.20;;;;;;;3.38;100.00;97625.84;5063373;28;20209;-61
2022/11/27 06:51:00;;;;;;;7.10;6.50;;;;;;;3.45;100.00;97629.00;5056752;28;20213;-63
2022/11/27 06:53:26;;;;;;;7.43;6.73;;;;;;;3.45;100.00;97626.38;5058757;28;20210;-62
2022/11/27 06:55:54;;;;;;;7.33;6.73;;;;;;;3.49;100.00;97617.47;5065669;28;20218;-61
2022/11/27 06:58:21;;;;;;;7.53;6.83;;;;;;;3.50;100.00;97612.19;5061942;28;20691;-61
2022/11/27 07:00:47;;;;;;;8.20;7.50;;;;;;;3.47;100.00;97614.91;5064631;28;20230;-61
2022/11/27 07:03:14;;;;;;;7.87;7.17;;;;;;;3.46;100.00;97607.16;5054937;28;20218;-61
2022/11/27 07:05:40;;;;;;;7.70;7.00;;;;;;;3.54;100.00;97606.78;5054726;28;20576;-61
2022/11/27 07:08:07;;;;;;;8.07;7.37;;;;;;;3.62;100.00;97604.59;5057644;28;20229;-60
2022/11/27 07:10:34;;;;;;;7.93;7.13;;;;;;;3.65;100.00;97601.88;5055280;28;20203;-61
2022/11/27 07:13:03;;;;;;;8.20;7.40;;;;;;;3.64;100.00;97606.25;5062649;28;20693;-61
2022/11/27 07:15:29;;;;;;;8.20;7.40;;;;;;;3.67;100.00;97600.00;5064227;28;20199;-61
2022/11/27 07:17:56;;;;;;;8.77;7.83;;;;;;;3.72;100.00;97598.84;5070202;28;20217;-61
2022/11/27 07:20:22;;;;;;;9.40;8.50;;;;;;;3.75;100.00;97603.94;5081355;28;20260;-62
2022/11/27 07:22:49;;;;;;;10.53;9.40;;;;;;;3.76;100.00;97610.84;5067912;28;20218;-62
2022/11/27 07:25:15;;;;;;;9.87;8.87;;;;;;;3.81;100.00;97608.84;5068485;28;20198;-61
2022/11/27 07:27:42;;;;;;;9.00;8.10;;;;;;;3.79;100.00;97620.34;5069845;28;20215;-61
2022/11/27 07:30:11;;;;;;;10.17;9.10;;;;;;;3.80;100.00;97617.63;5069574;28;20203;-61
2022/11/27 07:32:40;;;;;;;12.90;9.83;;;;;;;3.85;100.00;97615.63;5067348;28;20555;-61
2022/11/27 07:35:07;;;;;;;11.37;10.03;;;;;;;3.86;100.00;97611.25;5053481;28;20242;-61
2022/11/27 07:37:34;;;;;;;11.27;9.67;;;;;;;3.86;100.00;97606.81;5054692;28;20203;-61
2022/11/27 07:40:01;;;;;;;12.53;10.80;;;;;;;3.85;100.00;97597.31;5054517;28;20299;-60
2022/11/27 07:42:28;;;;;;;12.20;10.87;;;;;;;3.86;100.00;97598.97;5067972;28;20203;-61
2022/11/27 07:44:56;;;;;;;13.23;11.77;;;;;;;3.93;100.00;97597.75;5058355;28;20214;-60
2022/11/27 07:47:24;;;;;;;13.63;10.90;;;;;;;4.04;100.00;97594.56;5058397;28;20554;-60
2022/11/27 07:49:50;;;;;;;12.40;11.00;;;;;;;3.94;100.00;97602.06;5057414;28;20199;-62
2022/11/27 07:52:17;;;;;;;12.60;10.70;;;;;;;3.98;100.00;97610.59;5061201;28;20301;-61
2022/11/27 07:54:44;;;;;;;12.70;11.40;;;;;;;4.05;100.00;97603.28;5058228;28;20215;-61
2022/11/27 07:57:10;;;;;;;11.63;10.50;;;;;;;4.11;100.00;97595.13;5062890;28;20593;-61
2022/11/27 07:59:38;;;;;;;11.37;10.17;;;;;;;4.12;100.00;97584.56;5060491;28;20538;-60
2022/11/27 08:02:04;;;;;;;13.40;11.80;;;;;;;4.23;100.00;97589.22;5059923;28;20532;-60
2022/11/27 08:04:32;;;;;;;11.60;10.40;;;;;;;4.25;100.00;97597.84;5073020;28;20221;-60
2022/11/27 08:06:59;;;;;;;10.53;9.43;;;;;;;4.23;100.00;97591.84;5057614;28;20210;-61
2022/11/27 08:09:25;;;;;;;10.80;9.70;;;;;;;4.32;100.00;97591.38;5057903;28;20230;-61
2022/11/27 08:11:52;;;;;;;10.93;9.53;;;;;;;4.45;100.00;97581.91;5057715;28;20547;-60
2022/11/27 08:14:19;;;;;;;11.33;10.13;;;;;;;4.50;100.00;97572.88;5057952;28;20547;-60
2022/11/27 08:16:45;;;;;;;12.73;11.23;;;;;;;4.58;100.00;97575.06;5057296;28;20206;-60
2022/11/27 08:19:13;;;;;;;15.70;12.87;;;;;;;4.62;100.00;97581.00;5059080;28;20206;-61
2022/11/27 08:21:41;;;;;;;16.10;13.07;;;;;;;4.67;100.00;97585.06;5056635;28;20567;-61
2022/11/27 08:24:08;;;;;;;14.60;12.50;;;;;;;4.72;100.00;97598.75;5057269;28;20221;-61
2022/11/27 08:26:35;;;;;;;16.03;13.17;;;;;;;4.79;100.00;97599.25;5057324;28;20240;-60
2022/11/27 08:29:01;;;;;;;17.70;13.37;;;;;;;4.79;100.00;97594.84;5057663;28;20207;-60
2022/11/27 08:31:28;;;;;;;17.07;13.80;;;;;;;4.87;100.00;97581.34;5058778;28;20258;-61
2022/11/27 08:33:55;;;;;;;15.07;12.97;;;;;;;4.87;100.00;97582.19;5069565;28;20198;-61
2022/11/27 08:36:26;;;;;;;18.37;14.23;;;;;;;4.99;100.00;97584.09;5058112;28;20246;-61
2022/11/27 08:38:54;;;;;;;14.50;13.00;;;;;;;4.95;100.00;97566.03;5072908;28;20216;-60
2022/11/27 08:41:21;;;;;;;14.47;12.50;;;;;;;5.06;100.00;97565.44;5069223;28;20218;-61
2022/11/27 08:43:49;;;;;;;13.00;11.43;;;;;;;5.07;100.00;97572.34;5061969;28;20299;-61
2022/11/27 08:46:15;;;;;;;14.20;12.70;;;;;;;5.12;100.00;97586.06;5056782;28;20203;-61
2022/11/27 08:48:42;;;;;;;14.57;12.67;;;;;;;5.17;100.00;97584.03;5057293;28;20565;-60
2022/11/27 08:51:11;;;;;;;14.73;13.00;;;;;;;5.18;100.00;97569.97;5057051;28;20257;-60
2022/11/27 08:53:38;;;;;;;14.97;12.53;;;;;;;5.28;100.00;97563.28;5056928;28;20206;-61
2022/11/27 08:56:08;;;;;;;14.47;12.50;;;;;;;5.27;100.00;97561.59;5057199;28;20203;-60
2022/11/27 08:58:34;;;;;;;14.17;12.03;;;;;;;5.47;100.00;97566.50;5056784;28;20206;-61
2022/11/27 09:01:07;;;;;;;14.47;11.67;;;;;;;5.45;100.00;97556.13;5056640;28;20318;-60
2022/11/27 09:03:34;;;;;;;13.07;11.53;;;;;;;5.44;100.00;97570.16;5056972;28;20199;-62
2022/11/27 09:06:07;;;;;;;13.10;11.23;;;;;;;5.52;100.00;97559.22;5056243;28;20222;-61
2022/11/27 09:08:34;;;;;;;12.00;10.80;;;;;;;5.55;100.00;97555.56;5056081;28;20218;-62
2022/11/27 09:11:03;;;;;;;11.50;10.27;;;;;;;5.63;100.00;97559.44;5056275;28;20203;-62
2022/11/27 09:13:31;;;;;;;11.13;10.07;;;;;;;5.75;100.00;97556.09;5064156;28;20216;-61
2022/11/27 09:15:58;;;;;;;11.10;10.10;;;;;;;5.73;100.00;97562.38;5061348;28;20557;-60
2022/11/27 09:18:25;;;;;;;12.57;11.27;;;;;;;5.73;100.00;97567.63;5056830;28;20195;-61
2022/11/27 09:20:56;;;;;;;12.13;10.90;;;;;;;5.77;100.00;97569.97;5055487;28;20278;-60
2022/11/27 09:23:22;;;;;;;13.17;11.40;;;;;;;5.66;100.00;97572.38;5055848;28;20222;-61
2022/11/27 09:25:49;;;;;;;11.60;10.40;;;;;;;5.63;100.00;97566.47;5056658;28;20215;-61
2022/11/27 09:28:16;;;;;;;11.30;10.20;;;;;;;5.73;100.00;97560.59;5062434;28;20542;-61
2022/11/27 09:30:44;;;;;;;11.00;9.90;;;;;;;5.74;100.00;97566.69;5062852;28;20195;-61
2022/11/27 09:33:10;;;;;;;10.70;9.70;;;;;;;6.18;100.00;97572.75;5056956;28;20551;-61
2022/11/27 09:35:37;;;;;;;12.40;10.50;;;;;;;6.57;96.31;97558.94;5056162;28;20249;-61
2022/11/27 09:38:05;;;;;;;12.00;10.53;;;;;;;6.81;96.38;97549.50;5055850;28;20222;-60
2022/11/27 09:40:32;;;;;;;10.63;9.50;;;;;;;7.10;93.69;97546.78;5056411;28;20234;-60
2022/11/27 09:43:01;;;;;;;10.57;9.50;;;;;;;7.19;95.86;97539.13;5066898;28;20222;-60
2022/11/27 09:45:28;;;;;;;10.67;9.67;;;;;;;7.22;93.21;97533.69;5060896;28;20207;-60
2022/11/27 09:47:59;;;;;;;11.43;10.23;;;;;;;7.17;92.44;97533.13;5063385;28;20217;-60
2022/11/27 09:50:28;;;;;;;10.43;9.33;;;;;;;7.17;93.30;97524.41;5063403;28;20191;-59
2022/11/27 09:52:58;;;;;;;19.50;9.73;;;;;;;7.59;91.90;97505.75;5054254;28;20301;-59
2022/11/27 09:55:26;;;;;;;11.27;9.13;;;;;;;7.42;88.18;97514.78;5054036;28;20294;-59
2022/11/27 09:57:56;;;;;;;10.30;9.20;;;;;;;7.36;91.04;97509.94;5054137;28;20206;-60
2022/11/27 10:00:23;;;;;;;10.00;9.00;;;;;;;7.41;91.28;97506.97;5064137;28;20205;-60
2022/11/27 10:02:52;;;;;;;10.23;9.23;;;;;;;7.40;91.79;97505.31;5063509;28;20694;-59
2022/11/27 10:05:22;;;;;;;9.53;8.53;;;;;;;7.24;94.62;97492.31;5064335;28;20218;-60
2022/11/27 10:08:13;;;;;;;10.30;9.30;;;;;;;6.96;94.71;97492.47;5064063;28;20191;-60
2022/11/27 10:10:45;;;;;;;9.50;8.60;;;;;;;7.20;93.59;97487.38;5071148;28;20191;-61
2022/11/27 10:13:22;;;;;;;11.00;10.00;;;;;;;7.14;94.65;97488.63;5087416;28;20203;-60
2022/11/27 10:15:52;;;;;;;10.53;9.43;;;;;;;7.14;95.27;97487.78;5083552;28;20225;-61
2022/11/27 10:18:27;;;;;;;10.27;8.93;;;;;;;7.15;91.74;97476.31;5072101;28;20202;-59
2022/11/27 10:20:58;;;;;;;9.40;8.50;;;;;;;7.16;94.39;97480.63;5066716;28;20194;-60
2022/11/27 10:23:40;;;;;;;9.97;8.73;;;;;;;7.14;92.88;97480.75;5062943;28;20199;-59
2022/11/27 10:26:12;;;;;;;9.53;8.63;;;;;;;7.10;92.58;97481.88;5070129;28;20195;-59
2022/11/27 10:28:42;;;;;;;9.47;8.60;;;;;;;7.20;93.36;97482.09;5065094;28;20192;-59
2022/11/27 10:31:12;;;;;;;9.57;8.63;;;;;;;7.18;92.35;97468.22;5067525;28;20289;-60
2022/11/27 10:33:42;;;;;;;9.30;8.40;;;;;;;7.30;92.95;97468.22;5076019;28;20204;-59
2022/11/27 10:36:14;;;;;;;10.10;9.10;;;;;;;7.28;93.31;97458.75;5055527;28;20265;-59
2022/11/27 10:38:42;;;;;;;10.77;9.67;;;;;;;7.20;92.06;97461.06;5069392;28;20554;-59
2022/11/27 10:41:12;;;;;;;10.77;9.67;;;;;;;7.22;93.98;97446.03;5073262;28;20222;-60
2022/11/27 10:43:39;;;;;;;10.57;9.33;;;;;;;7.14;95.55;97446.53;5095982;28;20210;-58
2022/11/27 10:46:10;;;;;;;10.30;9.23;;;;;;;7.22;95.27;97432.88;5071876;28;20204;-59
2022/11/27 10:48:38;;;;;;;9.90;9.00;;;;;;;7.22;93.87;97432.88;5068470;28;20214;-59
2022/11/27 10:51:14;;;;;;;10.67;9.67;;;;;;;7.22;95.30;97438.16;5064810;28;20220;-60
2022/11/27 10:53:42;;;;;;;10.80;9.70;;;;;;;7.15;94.63;97440.34;5061387;28;20201;-59
2022/11/27 10:56:31;;;;;;;10.83;9.73;;;;;;;7.17;95.33;97445.47;5059192;28;20217;-60
2022/11/27 10:58:59;;;;;;;10.13;9.23;;;;;;;7.20;96.23;97440.00;5062410;28;20210;-58
2022/11/27 11:01:28;;;;;;;10.90;9.50;;;;;;;7.19;95.26;97433.09;5059344;28;20237;-60
2022/11/27 11:04:05;;;;;;;10.43;9.43;;;;;;;7.14;95.37;97429.91;5054425;28;20211;-59
2022/11/27 11:06:34;;;;;;;11.73;10.63;;;;;;;7.26;96.56;97429.09;5067018;28;20202;-60
2022/11/27 11:09:01;;;;;;;10.70;9.70;;;;;;;7.33;99.45;97418.03;5062638;28;20211;-60
2022/11/27 11:11:28;;;;;;;10.83;9.83;;;;;;;7.39;96.62;97412.38;5066328;28;20612;-60
2022/11/27 11:13:54;;;;;;;10.20;9.20;;;;;;;7.36;94.49;97406.47;5065553;28;20202;-59
2022/11/27 11:16:22;;;;;;;11.90;10.20;;;;;;;7.37;95.02;97400.25;5075954;28;20228;-60
2022/11/27 11:18:50;;;;;;;10.37;9.37;;;;;;;7.36;93.65;97398.59;5078213;28;20561;-60
2022/11/27 11:21:28;;;;;;;10.13;9.23;;;;;;;7.21;92.33;97395.22;5068862;28;20231;-60
2022/11/27 11:23:58;;;;;;;9.73;8.83;;;;;;;7.36;93.61;97388.06;5078177;28;20198;-59
2022/11/27 11:26:29;;;;;;;11.13;10.03;;;;;;;7.38;94.51;97373.00;5058754;28;20210;-59
2022/11/27 11:28:57;;;;;;;11.00;9.83;;;;;;;7.39;95.09;97367.66;5058182;28;20221;-59